New Horizon — WKWB — position and weather

sailwx.info

Track history (hours):
 
Tides and Currents Weather Stations Pressure Air Temp Water Temp Dewpoint Dewpoint Depression Visibility Wind Speed Wind Dir Waves Ship Positions

Oceanographic research ship New Horizon (USA)

Detailed information on ship capabilities available from University of Delaware's Ocean Information Center.

Owner: Bold Horizon, LLC., Annapolis, MD. More information available from US FCC via Universal Licensing System and Coast Guard Vessel Documentation Center.

Last reported at 2017-Jun-09 22:17 UTC. Time now 2017-Jun-28 07:05 UTC.
Position N 32°42' W 117°09'.
Warning: this ship's position is 18 days out of date.

Type: Other ship. MMSI: 303273000.

Date/timePositionNaut miles runAvg speedWind from/ knotsBaromVisibWave heightAir tempDewpointWater temp
2017-Jun-09 22:17N 32°42' W 117°09'2 6.6
2017-Jun-09 22:00N 32°43' W 117°11'3 5.9
2017-Jun-09 21:30N 32°41' W 117°14'3 6.7
2017-Jun-09 21:00N 32°38' W 117°15'5 9.1
2017-Jun-09 20:30N 32°40' W 117°20'5 9.0
2017-Jun-09 20:00N 32°43' W 117°24'4 8.7
2017-Jun-09 19:30N 32°46' W 117°28'4 8.5
2017-Jun-09 19:00N 32°49' W 117°32'4 8.4
2017-Jun-09 18:30N 32°51' W 117°36'4 8.0
2017-Jun-09 18:00N 32°54' W 117°40'1 1.2
2017-Jun-09 17:30N 32°54' W 117°40'0 0.7
2017-Jun-09 17:00N 32°53' W 117°40'0 0.7
2017-Jun-09 16:30N 32°53' W 117°41'0 0.8
2017-Jun-09 16:00N 32°53' W 117°41'0 0.7
2017-Jun-09 15:30N 32°52' W 117°41'0 0.8
2017-Jun-09 15:00N 32°52' W 117°41'2 3.4
2017-Jun-09 14:30N 32°53' W 117°43'6 6.4
2017-Jun-09 13:30N 32°56' W 117°50'3 6.0
2017-Jun-09 13:00N 32°57' W 117°53'3 6.3
2017-Jun-09 12:30N 32°59' W 117°56'3 6.1
2017-Jun-09 12:00N 33°01' W 117°59'3 6.1
2017-Jun-09 11:30N 33°02' W 118°02'3 5.9
2017-Jun-09 11:00N 33°04' W 118°05'3 6.4
2017-Jun-09 10:30N 33°05' W 118°09'4 6.7
2017-Jun-09 09:57N 33°07' W 118°12'3 6.6
2017-Jun-09 09:30N 33°09' W 118°15'4 6.6
2017-Jun-09 08:53N 33°11' W 118°19'3 6.7
2017-Jun-09 08:30N 33°12' W 118°22'3 6.5
2017-Jun-09 08:00N 33°14' W 118°25'3 6.8
2017-Jun-09 07:30N 33°16' W 118°29'3 6.9
2017-Jun-09 07:00N 33°18' W 118°32'3 6.6
2017-Jun-09 06:30N 33°21' W 118°34'3 6.3
2017-Jun-09 06:00N 33°23' W 118°37'3 6.5
2017-Jun-09 05:30N 33°25' W 118°40'3 6.8
2017-Jun-09 05:00N 33°28' W 118°42'4 7.2
2017-Jun-09 04:30N 33°31' W 118°45'4 7.1
2017-Jun-09 04:00N 33°33' W 118°48'4 6.9
2017-Jun-09 03:27N 33°36' W 118°51'3 6.8
2017-Jun-09 03:00N 33°38' W 118°53'3 6.9
2017-Jun-09 02:30N 33°41' W 118°56'3 7.0
2017-Jun-09 02:00N 33°44' W 118°59'3 5.9
2017-Jun-09 01:30N 33°46' W 119°00'1 1.7
2017-Jun-09 01:00N 33°46' W 118°59'0 0.7
2017-Jun-09 00:30N 33°47' W 118°59'0 0.3
2017-Jun-08 23:59N 33°47' W 118°59'0 0.0
2017-Jun-08 23:30N 33°47' W 118°59'0 0.1
2017-Jun-08 23:00N 33°47' W 118°59'1 1.2
2017-Jun-08 22:30N 33°47' W 118°60'1 1.0
2017-Jun-08 22:00N 33°47' W 118°59'1 1.8
2017-Jun-08 21:30N 33°47' W 118°58'1 1.0
2017-Jun-08 21:00N 33°47' W 118°59'0 0.7
2017-Jun-08 20:30N 33°47' W 118°59'0 0.1
2017-Jun-08 20:00N 33°47' W 118°59'0 0.0
2017-Jun-08 19:30N 33°47' W 118°59'0 0.0
2017-Jun-08 19:00N 33°47' W 118°59'0 0.1
2017-Jun-08 18:30N 33°47' W 118°59'1 2.8
2017-Jun-08 18:00N 33°47' W 119°01'1 1.2
2017-Jun-08 17:30N 33°47' W 119°01'1 1.4
2017-Jun-08 17:00N 33°47' W 119°00'1 2.0
2017-Jun-08 16:30N 33°47' W 118°59'1 1.8
2017-Jun-08 16:00N 33°47' W 118°58'1 1.9
2017-Jun-08 15:30N 33°47' W 118°57'1 1.5
2017-Jun-08 15:01N 33°46' W 118°56'1 1.9
2017-Jun-08 14:30N 33°47' W 118°57'1 1.2
2017-Jun-08 13:30N 33°47' W 118°59'1 1.1
2017-Jun-08 13:00N 33°47' W 118°60'1 1.3
2017-Jun-08 12:30N 33°47' W 119°00'1 1.0
2017-Jun-08 12:00N 33°47' W 119°01'1 1.1
2017-Jun-08 11:30N 33°47' W 119°02'1 1.1
2017-Jun-08 11:00N 33°47' W 119°02'0 1.0
2017-Jun-08 10:30N 33°47' W 119°03'1 1.2
2017-Jun-08 10:00N 33°47' W 119°04'1 1.1
2017-Jun-08 09:30N 33°47' W 119°04'1 1.1
2017-Jun-08 09:00N 33°47' W 119°05'1 1.3
2017-Jun-08 08:30N 33°47' W 119°06'0 0.9
2017-Jun-08 08:00N 33°47' W 119°06'1 1.3
2017-Jun-08 07:30N 33°47' W 119°05'1 1.6
2017-Jun-08 07:00N 33°47' W 119°04'1 1.7
2017-Jun-08 06:30N 33°47' W 119°03'1 1.8
2017-Jun-08 06:00N 33°47' W 119°02'1 1.3
2017-Jun-08 05:30N 33°47' W 119°02'1 1.5
2017-Jun-08 05:00N 33°47' W 119°01'1 1.5
2017-Jun-08 04:30N 33°47' W 118°60'1 1.3
2017-Jun-08 04:00N 33°47' W 118°59'0 0.9
2017-Jun-08 03:30N 33°47' W 118°58'0 0.2
2017-Jun-08 03:00N 33°47' W 118°58'0 0.2
2017-Jun-08 02:30N 33°47' W 118°58'0 0.3
2017-Jun-08 02:00N 33°47' W 118°58'0 0.2
2017-Jun-08 01:30N 33°47' W 118°58'0 0.1
2017-Jun-08 01:00N 33°47' W 118°58'0 0.1
2017-Jun-08 00:30N 33°47' W 118°58'0 0.0
2017-Jun-08 00:00N 33°47' W 118°58'1 1.3
2017-Jun-07 23:30N 33°46' W 118°59'1 2.2
2017-Jun-07 23:00N 33°46' W 118°60'1 1.1
2017-Jun-07 22:30N 33°46' W 118°59'1 1.1
2017-Jun-07 22:00N 33°46' W 118°59'1 1.2
2017-Jun-07 21:30N 33°46' W 118°58'0 0.6
2017-Jun-07 20:59N 33°47' W 118°58'1 1.3
2017-Jun-07 20:30N 33°47' W 118°57'0 0.3
2017-Jun-07 20:00N 33°47' W 118°57'1 1.1
2017-Jun-07 19:30N 33°47' W 118°58'0 0.5
2017-Jun-07 19:00N 33°47' W 118°58'0 0.0
2017-Jun-07 18:31N 33°47' W 118°58'0 0.1
2017-Jun-07 18:00N 33°47' W 118°58'0 0.1
2017-Jun-07 17:31N 33°47' W 118°58'0 0.1
2017-Jun-07 17:00N 33°46' W 118°58'3 7.0
2017-Jun-07 16:30N 33°49' W 119°00'3 6.8
2017-Jun-07 16:00N 33°52' W 119°02'3 6.9
2017-Jun-07 15:30N 33°55' W 119°05'3 6.8
2017-Jun-07 15:00N 33°58' W 119°07'7 6.9
2017-Jun-07 14:00N 34°04' W 119°11'4 7.1
2017-Jun-07 13:25N 34°08' W 119°13'1 2.8
2017-Jun-07 13:00N 34°09' W 119°13'0 0.0
2017-Jun-07 11:09N 34°09' W 119°13'0 0.0
2017-Jun-07 10:54N 34°09' W 119°13'0 0.0
2017-Jun-07 05:26N 34°09' W 119°13'0 0.0
2017-Jun-07 00:12N 34°09' W 119°13'0 0.1
2017-Jun-06 23:59N 34°09' W 119°13'3 5.6
2017-Jun-06 23:30N 34°06' W 119°12'3 6.7
2017-Jun-06 22:59N 34°03' W 119°11'4 8.2
2017-Jun-06 22:31N 33°60' W 119°09'4 7.5
2017-Jun-06 22:00N 33°56' W 119°07'0 0.1
2017-Jun-06 21:30N 33°56' W 119°07'0 0.7
2017-Jun-06 21:01N 33°56' W 119°07'1 1.3
2017-Jun-06 20:30N 33°57' W 119°08'0 0.9
2017-Jun-06 20:01N 33°57' W 119°08'1 1.3
2017-Jun-06 19:31N 33°58' W 119°08'1 2.5
2017-Jun-06 19:01N 33°59' W 119°08'1 2.9
2017-Jun-06 18:31N 33°58' W 119°06'3 6.9
2017-Jun-06 18:01N 33°55' W 119°04'3 6.9
2017-Jun-06 17:31N 33°52' W 119°02'4 7.5
2017-Jun-06 17:00N 33°49' W 118°59'3 6.2
2017-Jun-06 16:31N 33°47' W 118°58'0 0.3
2017-Jun-06 16:01N 33°47' W 118°58'0 0.1
2017-Jun-06 15:31N 33°47' W 118°58'0 0.1
2017-Jun-06 15:00N 33°46' W 118°58'0 0.2
2017-Jun-06 14:30N 33°46' W 118°58'8 7.7
2017-Jun-06 13:31N 33°53' W 119°03'4 8.0
2017-Jun-06 13:01N 33°56' W 119°05'4 7.9
2017-Jun-06 12:31N 33°60' W 119°08'4 7.9
2017-Jun-06 11:59N 34°03' W 119°10'4 8.0
2017-Jun-06 11:28N 34°07' W 119°12'2 5.2
2017-Jun-06 11:01N 34°09' W 119°13'0 0.0
2017-Jun-06 10:30N 34°09' W 119°13'0 0.0
2017-Jun-06 10:00N 34°09' W 119°13'0 0.0
2017-Jun-06 09:29N 34°09' W 119°13'0 0.0
2017-Jun-06 08:55N 34°09' W 119°13'0 0.0
2017-Jun-06 08:31N 34°09' W 119°13'0 0.0
2017-Jun-06 08:00N 34°09' W 119°13'0 0.0
2017-Jun-06 07:28N 34°09' W 119°13'0 0.0
2017-Jun-06 07:00N 34°09' W 119°13'0 0.0
2017-Jun-06 06:30N 34°09' W 119°13'0 0.0
2017-Jun-06 06:00N 34°09' W 119°13'0 0.0
2017-Jun-06 05:30N 34°09' W 119°13'0 0.0
2017-Jun-06 05:01N 34°09' W 119°13'0 0.0
2017-Jun-06 04:29N 34°09' W 119°13'0 0.0
2017-Jun-06 03:56N 34°09' W 119°13'0 0.0
2017-Jun-06 03:23N 34°09' W 119°13'0 0.0
2017-Jun-06 03:00N 34°09' W 119°13'0 0.0
2017-Jun-06 02:30N 34°09' W 119°13'0 0.0
2017-Jun-06 01:59N 34°09' W 119°13'0 0.0
2017-Jun-06 01:28N 34°09' W 119°13'1 2.7
2017-Jun-06 01:00N 34°08' W 119°13'4 8.1
2017-Jun-06 00:30N 34°04' W 119°11'4 7.9
2017-Jun-06 00:00N 34°01' W 119°09'4 8.0
2017-Jun-05 23:31N 33°58' W 119°06'4 8.2
2017-Jun-05 23:01N 33°54' W 119°03'4 8.1
2017-Jun-05 22:31N 33°51' W 119°00'4 8.0
2017-Jun-05 22:01N 33°48' W 118°58'1 2.1
2017-Jun-05 21:30N 33°47' W 118°58'0 0.1
2017-Jun-05 21:00N 33°47' W 118°58'0 0.2
2017-Jun-05 20:31N 33°46' W 118°58'0 0.1
2017-Jun-05 20:00N 33°47' W 118°58'0 0.1
2017-Jun-05 19:31N 33°47' W 118°58'0 0.1
2017-Jun-05 19:00N 33°46' W 118°58'0 0.1
2017-Jun-05 18:30N 33°47' W 118°58'0 0.1
2017-Jun-05 18:01N 33°46' W 118°58'0 0.2
2017-Jun-05 17:31N 33°46' W 118°58'0 0.2
2017-Jun-05 17:01N 33°46' W 118°58'0 0.3
2017-Jun-05 16:31N 33°46' W 118°58'0 0.2
2017-Jun-05 16:01N 33°47' W 118°58'0 0.6
2017-Jun-05 15:31N 33°47' W 118°58'0 0.3
2017-Jun-05 15:01N 33°47' W 118°58'2 1.7
2017-Jun-05 13:59N 33°48' W 118°60'1 1.1
2017-Jun-05 13:30N 33°48' W 119°00'0 0.5
2017-Jun-05 13:01N 33°48' W 118°60'1 1.5
2017-Jun-05 12:31N 33°48' W 118°59'1 1.5
2017-Jun-05 12:01N 33°48' W 118°58'1 1.8
2017-Jun-05 11:31N 33°48' W 118°57'1 1.8
2017-Jun-05 11:01N 33°48' W 118°56'1 1.7
2017-Jun-05 10:31N 33°48' W 118°55'1 1.7
2017-Jun-05 10:00N 33°48' W 118°54'0 0.8
2017-Jun-05 09:31N 33°48' W 118°54'1 1.4
2017-Jun-05 09:01N 33°48' W 118°55'1 1.3
2017-Jun-05 08:31N 33°47' W 118°56'1 1.6
2017-Jun-05 08:01N 33°47' W 118°57'1 1.6
2017-Jun-05 07:31N 33°48' W 118°58'1 1.5
2017-Jun-05 07:01N 33°48' W 118°59'1 1.5
2017-Jun-05 06:31N 33°48' W 118°59'1 1.5
2017-Jun-05 06:00N 33°48' W 119°00'1 1.1
2017-Jun-05 05:31N 33°49' W 119°01'0 0.9
2017-Jun-05 05:00N 33°48' W 119°01'1 1.0
2017-Jun-05 04:31N 33°48' W 119°02'0 1.0
2017-Jun-05 04:01N 33°48' W 119°03'0 1.0
2017-Jun-05 03:30N 33°48' W 119°03'0 0.1
2017-Jun-05 03:00N 33°48' W 119°03'1 2.1
2017-Jun-05 02:30N 33°48' W 119°02'1 2.1
2017-Jun-05 02:00N 33°49' W 119°01'1 1.8
2017-Jun-05 01:31N 33°49' W 118°60'2 3.4
2017-Jun-05 01:00N 33°50' W 119°01'3 7.0
2017-Jun-05 00:31N 33°54' W 119°03'4 7.1
2017-Jun-05 00:00N 33°57' W 119°05'2 4.5
2017-Jun-04 23:31N 33°55' W 119°03'4 8.2
2017-Jun-04 23:01N 33°52' W 119°00'4 8.1
2017-Jun-04 22:30N 33°48' W 118°58'2 3.4
2017-Jun-04 22:00N 33°46' W 118°57'1 1.5
2017-Jun-04 21:31N 33°46' W 118°58'1 1.5
2017-Jun-04 21:01N 33°46' W 118°59'0 0.1
2017-Jun-04 20:30N 33°46' W 118°59'1 1.3
2017-Jun-04 20:00N 33°46' W 118°58'1 1.4
2017-Jun-04 19:31N 33°46' W 118°57'1 1.5
2017-Jun-04 19:00N 33°47' W 118°57'0 0.4
2017-Jun-04 18:31N 33°47' W 118°56'1 1.3
2017-Jun-04 18:01N 33°47' W 118°57'1 1.1
2017-Jun-04 17:31N 33°46' W 118°58'0 0.0
2017-Jun-04 17:00N 33°46' W 118°58'0 0.1
2017-Jun-04 16:28N 33°46' W 118°58'0 0.0
2017-Jun-04 16:00N 33°46' W 118°58'0 0.0
2017-Jun-04 15:31N 33°46' W 118°58'0 0.6
2017-Jun-04 14:59N 33°47' W 118°58'0 0.6
2017-Jun-04 14:31N 33°47' W 118°58'1 0.7
2017-Jun-04 13:31N 33°46' W 118°57'1 1.6
2017-Jun-04 13:01N 33°47' W 118°58'1 1.5
2017-Jun-04 12:30N 33°47' W 118°57'1 1.6
2017-Jun-04 12:01N 33°47' W 118°58'1 1.5
2017-Jun-04 11:30N 33°47' W 118°59'1 1.4
2017-Jun-04 11:01N 33°47' W 118°60'1 1.3
2017-Jun-04 10:29N 33°47' W 119°01'1 1.3
2017-Jun-04 10:01N 33°47' W 119°01'1 1.3
2017-Jun-04 09:31N 33°47' W 119°02'1 1.2
2017-Jun-04 09:01N 33°47' W 119°03'1 1.0
2017-Jun-04 08:30N 33°47' W 119°03'0 0.8
2017-Jun-04 08:00N 33°47' W 119°04'1 1.1
2017-Jun-04 07:31N 33°47' W 119°03'1 1.3
2017-Jun-04 07:01N 33°47' W 119°02'1 1.4
2017-Jun-04 06:30N 33°47' W 119°02'1 1.4
2017-Jun-04 06:01N 33°47' W 119°01'1 1.3
2017-Jun-04 05:27N 33°47' W 118°60'1 1.4
2017-Jun-04 05:01N 33°47' W 118°59'1 1.2
2017-Jun-04 04:31N 33°47' W 118°58'1 1.2
2017-Jun-04 04:00N 33°47' W 118°58'1 1.2
2017-Jun-04 03:30N 33°47' W 118°57'0 0.9
2017-Jun-04 03:01N 33°47' W 118°56'0 0.5
2017-Jun-04 02:31N 33°47' W 118°57'0 0.7
2017-Jun-04 02:01N 33°47' W 118°57'0 0.5
2017-Jun-04 01:30N 33°47' W 118°57'0 0.5
2017-Jun-04 01:00N 33°47' W 118°58'0 0.3
2017-Jun-04 00:31N 33°46' W 118°58'0 0.0
2017-Jun-04 00:00N 33°46' W 118°58'0 0.0
2017-Jun-03 23:31N 33°46' W 118°58'0 0.0
2017-Jun-03 23:01N 33°47' W 118°58'0 0.2
2017-Jun-03 22:31N 33°47' W 118°58'3 6.4
2017-Jun-03 22:01N 33°49' W 118°60'4 8.3
2017-Jun-03 21:30N 33°53' W 119°02'4 8.7
2017-Jun-03 21:01N 33°57' W 119°05'5 9.0
2017-Jun-03 20:28N 34°01' W 119°08'5 8.9
2017-Jun-03 19:53N 34°05' W 119°11'3 8.7
2017-Jun-03 19:30N 34°08' W 119°13'1 2.1
2017-Jun-03 19:00N 34°09' W 119°13'0 0.0
2017-Jun-03 18:27N 34°09' W 119°13'0 0.0
2017-Jun-03 17:59N 34°09' W 119°13'0 0.0
2017-Jun-03 17:30N 34°09' W 119°13'0 0.0
2017-Jun-03 16:59N 34°09' W 119°13'0 0.0
2017-Jun-03 16:30N 34°09' W 119°13'0 0.0
2017-Jun-03 15:58N 34°09' W 119°13'0 0.0
2017-Jun-03 15:29N 34°09' W 119°13'0 0.0
2017-Jun-03 14:50N 34°09' W 119°13'0 0.0
2017-Jun-03 13:56N 34°09' W 119°13'0 0.0
2017-Jun-03 12:59N 34°09' W 119°13'0 0.0
2017-Jun-03 10:20N 34°09' W 119°13'0 0.0
2017-Jun-03 09:56N 34°09' W 119°13'0 0.0
2017-Jun-03 08:59N 34°09' W 119°13'0 0.0
2017-Jun-03 08:26N 34°09' W 119°13'0 0.0
2017-Jun-03 07:32N 34°09' W 119°13'0 0.0
2017-Jun-03 07:26N 34°09' W 119°13'0 0.0
2017-Jun-03 06:56N 34°09' W 119°13'0 0.0
2017-Jun-03 03:32N 34°09' W 119°13'0 0.0
2017-Jun-03 03:26N 34°09' W 119°13'0 0.0
2017-Jun-03 02:50N 34°09' W 119°13'0 0.0
2017-Jun-03 02:14N 34°09' W 119°13'0 0.0
2017-Jun-03 01:56N 34°09' W 119°13'0 0.0
2017-Jun-03 01:08N 34°09' W 119°13'0 0.0
2017-Jun-03 00:56N 34°09' W 119°13'0 0.0
2017-Jun-03 00:20N 34°09' W 119°13'0 0.0
2017-Jun-02 23:56N 34°09' W 119°13'0 0.0
2017-Jun-02 23:20N 34°09' W 119°13'0 0.0
2017-Jun-02 22:53N 34°09' W 119°13'0 0.0
2017-Jun-02 22:26N 34°09' W 119°13'0 0.0
2017-Jun-02 21:56N 34°09' W 119°13'0 0.0
2017-Jun-02 18:56N 34°09' W 119°13'0 0.0
2017-Jun-02 18:25N 34°09' W 119°13'0 0.0
2017-Jun-02 17:56N 34°09' W 119°13'0 0.0
2017-Jun-02 17:30N 34°09' W 119°13'0 0.0
2017-Jun-02 16:52N 34°09' W 119°13'0 0.0
2017-Jun-02 16:30N 34°09' W 119°13'0 0.0
2017-Jun-02 16:00N 34°09' W 119°13'0 0.0
2017-Jun-02 15:27N 34°09' W 119°13'0 0.0
2017-Jun-02 15:00N 34°09' W 119°13'0 0.0
2017-Jun-02 14:25N 34°09' W 119°13'0 0.2
2017-Jun-02 13:30N 34°09' W 119°13'2 3.9
2017-Jun-02 13:00N 34°07' W 119°12'3 5.4
2017-Jun-02 12:24N 34°05' W 119°09'2 4.6
2017-Jun-02 12:00N 34°04' W 119°08'2 4.5
2017-Jun-02 11:30N 34°03' W 119°05'3 5.3
2017-Jun-02 11:00N 34°01' W 119°03'3 6.2
2017-Jun-02 10:30N 33°59' W 118°59'4 7.9
2017-Jun-02 10:00N 33°57' W 118°56'4 8.4
2017-Jun-02 09:30N 33°55' W 118°52'4 8.2
2017-Jun-02 09:00N 33°52' W 118°48'4 8.6
2017-Jun-02 08:30N 33°48' W 118°48'4 8.7
2017-Jun-02 08:00N 33°44' W 118°44'4 8.6
2017-Jun-02 07:30N 33°41' W 118°40'4 8.8
2017-Jun-02 07:00N 33°38' W 118°36'4 8.7
2017-Jun-02 06:30N 33°36' W 118°32'4 8.5
2017-Jun-02 06:00N 33°33' W 118°28'5 8.6
2017-Jun-02 05:27N 33°30' W 118°24'4 8.7
2017-Jun-02 05:00N 33°28' W 118°20'4 8.6
2017-Jun-02 04:30N 33°25' W 118°17'4 8.6
2017-Jun-02 04:00N 33°22' W 118°13'4 8.4
2017-Jun-02 03:30N 33°18' W 118°10'4 8.0
2017-Jun-02 03:00N 33°16' W 118°06'4 8.1
2017-Jun-02 02:30N 33°12' W 118°03'4 8.0
2017-Jun-02 02:00N 33°10' W 117°60'4 7.7
2017-Jun-02 01:30N 33°07' W 117°57'4 7.6
2017-Jun-02 01:00N 33°04' W 117°53'4 7.7
2017-Jun-02 00:30N 33°01' W 117°50'4 7.8
2017-Jun-02 00:00N 32°59' W 117°47'4 7.9
2017-Jun-01 23:30N 32°56' W 117°44'4 7.5
2017-Jun-01 23:00N 32°53' W 117°41'3 6.2
2017-Jun-01 22:30N 32°51' W 117°38'0 0.3
2017-Jun-01 22:00N 32°51' W 117°38'0 0.0
2017-Jun-01 21:30N 32°51' W 117°38'0 0.3
2017-Jun-01 21:00N 32°51' W 117°38'1 2.3
2017-Jun-01 20:30N 32°51' W 117°37'4 8.3
2017-Jun-01 20:00N 32°49' W 117°32'4 7.9
2017-Jun-01 19:30N 32°47' W 117°28'4 7.7
2017-Jun-01 19:00N 32°45' W 117°24'4 7.8
2017-Jun-01 18:30N 32°42' W 117°21'4 7.8
2017-Jun-01 18:00N 32°40' W 117°18'3 6.0
2017-Jun-01 17:30N 32°39' W 117°14'4 7.4
2017-Jun-01 17:00N 32°43' W 117°13'3 6.4
2017-Jun-01 16:28N 32°42' W 117°09'  
Track history (hours):
 
Tides and Currents Weather Stations Pressure Air Temp Water Temp Dewpoint Dewpoint Depression Visibility Wind Speed Wind Dir Waves Ship Positions

Oceanographic research ship New Horizon (USA)

Detailed information on ship capabilities available from University of Delaware's Ocean Information Center.

Owner: Bold Horizon, LLC., Annapolis, MD. More information available from US FCC via Universal Licensing System and Coast Guard Vessel Documentation Center.

Last reported at 2017-Jun-09 22:17 UTC. Time now 2017-Jun-28 07:05 UTC.
Position N 32°42' W 117°09'.
Warning: this ship's position is 18 days out of date.

Type: Other ship. MMSI: 303273000.

Date/timePositionNaut miles runAvg speedWind from/ knotsBaromVisibWave heightAir tempDewpointWater temp
2017-Jun-09 22:17N 32°42' W 117°09'2 6.6
2017-Jun-09 22:00N 32°43' W 117°11'3 5.9
2017-Jun-09 21:30N 32°41' W 117°14'3 6.7
2017-Jun-09 21:00N 32°38' W 117°15'5 9.1
2017-Jun-09 20:30N 32°40' W 117°20'5 9.0
2017-Jun-09 20:00N 32°43' W 117°24'4 8.7
2017-Jun-09 19:30N 32°46' W 117°28'4 8.5
2017-Jun-09 19:00N 32°49' W 117°32'4 8.4
2017-Jun-09 18:30N 32°51' W 117°36'4 8.0
2017-Jun-09 18:00N 32°54' W 117°40'1 1.2
2017-Jun-09 17:30N 32°54' W 117°40'0 0.7
2017-Jun-09 17:00N 32°53' W 117°40'0 0.7
2017-Jun-09 16:30N 32°53' W 117°41'0 0.8
2017-Jun-09 16:00N 32°53' W 117°41'0 0.7
2017-Jun-09 15:30N 32°52' W 117°41'0 0.8
2017-Jun-09 15:00N 32°52' W 117°41'2 3.4
2017-Jun-09 14:30N 32°53' W 117°43'6 6.4
2017-Jun-09 13:30N 32°56' W 117°50'3 6.0
2017-Jun-09 13:00N 32°57' W 117°53'3 6.3
2017-Jun-09 12:30N 32°59' W 117°56'3 6.1
2017-Jun-09 12:00N 33°01' W 117°59'3 6.1
2017-Jun-09 11:30N 33°02' W 118°02'3 5.9
2017-Jun-09 11:00N 33°04' W 118°05'3 6.4
2017-Jun-09 10:30N 33°05' W 118°09'4 6.7
2017-Jun-09 09:57N 33°07' W 118°12'3 6.6
2017-Jun-09 09:30N 33°09' W 118°15'4 6.6
2017-Jun-09 08:53N 33°11' W 118°19'3 6.7
2017-Jun-09 08:30N 33°12' W 118°22'3 6.5
2017-Jun-09 08:00N 33°14' W 118°25'3 6.8
2017-Jun-09 07:30N 33°16' W 118°29'3 6.9
2017-Jun-09 07:00N 33°18' W 118°32'3 6.6
2017-Jun-09 06:30N 33°21' W 118°34'3 6.3
2017-Jun-09 06:00N 33°23' W 118°37'3 6.5
2017-Jun-09 05:30N 33°25' W 118°40'3 6.8
2017-Jun-09 05:00N 33°28' W 118°42'4 7.2
2017-Jun-09 04:30N 33°31' W 118°45'4 7.1
2017-Jun-09 04:00N 33°33' W 118°48'4 6.9
2017-Jun-09 03:27N 33°36' W 118°51'3 6.8
2017-Jun-09 03:00N 33°38' W 118°53'3 6.9
2017-Jun-09 02:30N 33°41' W 118°56'3 7.0
2017-Jun-09 02:00N 33°44' W 118°59'3 5.9
2017-Jun-09 01:30N 33°46' W 119°00'1 1.7
2017-Jun-09 01:00N 33°46' W 118°59'0 0.7
2017-Jun-09 00:30N 33°47' W 118°59'0 0.3
2017-Jun-08 23:59N 33°47' W 118°59'0 0.0
2017-Jun-08 23:30N 33°47' W 118°59'0 0.1
2017-Jun-08 23:00N 33°47' W 118°59'1 1.2
2017-Jun-08 22:30N 33°47' W 118°60'1 1.0
2017-Jun-08 22:00N 33°47' W 118°59'1 1.8
2017-Jun-08 21:30N 33°47' W 118°58'1 1.0
2017-Jun-08 21:00N 33°47' W 118°59'0 0.7
2017-Jun-08 20:30N 33°47' W 118°59'0 0.1
2017-Jun-08 20:00N 33°47' W 118°59'0 0.0
2017-Jun-08 19:30N 33°47' W 118°59'0 0.0
2017-Jun-08 19:00N 33°47' W 118°59'0 0.1
2017-Jun-08 18:30N 33°47' W 118°59'1 2.8
2017-Jun-08 18:00N 33°47' W 119°01'1 1.2
2017-Jun-08 17:30N 33°47' W 119°01'1 1.4
2017-Jun-08 17:00N 33°47' W 119°00'1 2.0
2017-Jun-08 16:30N 33°47' W 118°59'1 1.8
2017-Jun-08 16:00N 33°47' W 118°58'1 1.9
2017-Jun-08 15:30N 33°47' W 118°57'1 1.5
2017-Jun-08 15:01N 33°46' W 118°56'1 1.9
2017-Jun-08 14:30N 33°47' W 118°57'1 1.2
2017-Jun-08 13:30N 33°47' W 118°59'1 1.1
2017-Jun-08 13:00N 33°47' W 118°60'1 1.3
2017-Jun-08 12:30N 33°47' W 119°00'1 1.0
2017-Jun-08 12:00N 33°47' W 119°01'1 1.1
2017-Jun-08 11:30N 33°47' W 119°02'1 1.1
2017-Jun-08 11:00N 33°47' W 119°02'0 1.0
2017-Jun-08 10:30N 33°47' W 119°03'1 1.2
2017-Jun-08 10:00N 33°47' W 119°04'1 1.1
2017-Jun-08 09:30N 33°47' W 119°04'1 1.1
2017-Jun-08 09:00N 33°47' W 119°05'1 1.3
2017-Jun-08 08:30N 33°47' W 119°06'0 0.9
2017-Jun-08 08:00N 33°47' W 119°06'1 1.3
2017-Jun-08 07:30N 33°47' W 119°05'1 1.6
2017-Jun-08 07:00N 33°47' W 119°04'1 1.7
2017-Jun-08 06:30N 33°47' W 119°03'1 1.8
2017-Jun-08 06:00N 33°47' W 119°02'1 1.3
2017-Jun-08 05:30N 33°47' W 119°02'1 1.5
2017-Jun-08 05:00N 33°47' W 119°01'1 1.5
2017-Jun-08 04:30N 33°47' W 118°60'1 1.3
2017-Jun-08 04:00N 33°47' W 118°59'0 0.9
2017-Jun-08 03:30N 33°47' W 118°58'0 0.2
2017-Jun-08 03:00N 33°47' W 118°58'0 0.2
2017-Jun-08 02:30N 33°47' W 118°58'0 0.3
2017-Jun-08 02:00N 33°47' W 118°58'0 0.2
2017-Jun-08 01:30N 33°47' W 118°58'0 0.1
2017-Jun-08 01:00N 33°47' W 118°58'0 0.1
2017-Jun-08 00:30N 33°47' W 118°58'0 0.0
2017-Jun-08 00:00N 33°47' W 118°58'1 1.3
2017-Jun-07 23:30N 33°46' W 118°59'1 2.2
2017-Jun-07 23:00N 33°46' W 118°60'1 1.1
2017-Jun-07 22:30N 33°46' W 118°59'1 1.1
2017-Jun-07 22:00N 33°46' W 118°59'1 1.2
2017-Jun-07 21:30N 33°46' W 118°58'0 0.6
2017-Jun-07 20:59N 33°47' W 118°58'1 1.3
2017-Jun-07 20:30N 33°47' W 118°57'0 0.3
2017-Jun-07 20:00N 33°47' W 118°57'1 1.1
2017-Jun-07 19:30N 33°47' W 118°58'0 0.5
2017-Jun-07 19:00N 33°47' W 118°58'0 0.0
2017-Jun-07 18:31N 33°47' W 118°58'0 0.1
2017-Jun-07 18:00N 33°47' W 118°58'0 0.1
2017-Jun-07 17:31N 33°47' W 118°58'0 0.1
2017-Jun-07 17:00N 33°46' W 118°58'3 7.0
2017-Jun-07 16:30N 33°49' W 119°00'3 6.8
2017-Jun-07 16:00N 33°52' W 119°02'3 6.9
2017-Jun-07 15:30N 33°55' W 119°05'3 6.8
2017-Jun-07 15:00N 33°58' W 119°07'7 6.9
2017-Jun-07 14:00N 34°04' W 119°11'4 7.1
2017-Jun-07 13:25N 34°08' W 119°13'1 2.8
2017-Jun-07 13:00N 34°09' W 119°13'0 0.0
2017-Jun-07 11:09N 34°09' W 119°13'0 0.0
2017-Jun-07 10:54N 34°09' W 119°13'0 0.0
2017-Jun-07 05:26N 34°09' W 119°13'0 0.0
2017-Jun-07 00:12N 34°09' W 119°13'0 0.1
2017-Jun-06 23:59N 34°09' W 119°13'3 5.6
2017-Jun-06 23:30N 34°06' W 119°12'3 6.7
2017-Jun-06 22:59N 34°03' W 119°11'4 8.2
2017-Jun-06 22:31N 33°60' W 119°09'4 7.5
2017-Jun-06 22:00N 33°56' W 119°07'0 0.1
2017-Jun-06 21:30N 33°56' W 119°07'0 0.7
2017-Jun-06 21:01N 33°56' W 119°07'1 1.3
2017-Jun-06 20:30N 33°57' W 119°08'0 0.9
2017-Jun-06 20:01N 33°57' W 119°08'1 1.3
2017-Jun-06 19:31N 33°58' W 119°08'1 2.5
2017-Jun-06 19:01N 33°59' W 119°08'1 2.9
2017-Jun-06 18:31N 33°58' W 119°06'3 6.9
2017-Jun-06 18:01N 33°55' W 119°04'3 6.9
2017-Jun-06 17:31N 33°52' W 119°02'4 7.5
2017-Jun-06 17:00N 33°49' W 118°59'3 6.2
2017-Jun-06 16:31N 33°47' W 118°58'0 0.3
2017-Jun-06 16:01N 33°47' W 118°58'0 0.1
2017-Jun-06 15:31N 33°47' W 118°58'0 0.1
2017-Jun-06 15:00N 33°46' W 118°58'0 0.2
2017-Jun-06 14:30N 33°46' W 118°58'8 7.7
2017-Jun-06 13:31N 33°53' W 119°03'4 8.0
2017-Jun-06 13:01N 33°56' W 119°05'4 7.9
2017-Jun-06 12:31N 33°60' W 119°08'4 7.9
2017-Jun-06 11:59N 34°03' W 119°10'4 8.0
2017-Jun-06 11:28N 34°07' W 119°12'2 5.2
2017-Jun-06 11:01N 34°09' W 119°13'0 0.0
2017-Jun-06 10:30N 34°09' W 119°13'0 0.0
2017-Jun-06 10:00N 34°09' W 119°13'0 0.0
2017-Jun-06 09:29N 34°09' W 119°13'0 0.0
2017-Jun-06 08:55N 34°09' W 119°13'0 0.0
2017-Jun-06 08:31N 34°09' W 119°13'0 0.0
2017-Jun-06 08:00N 34°09' W 119°13'0 0.0
2017-Jun-06 07:28N 34°09' W 119°13'0 0.0
2017-Jun-06 07:00N 34°09' W 119°13'0 0.0
2017-Jun-06 06:30N 34°09' W 119°13'0 0.0
2017-Jun-06 06:00N 34°09' W 119°13'0 0.0
2017-Jun-06 05:30N 34°09' W 119°13'0 0.0
2017-Jun-06 05:01N 34°09' W 119°13'0 0.0
2017-Jun-06 04:29N 34°09' W 119°13'0 0.0
2017-Jun-06 03:56N 34°09' W 119°13'0 0.0
2017-Jun-06 03:23N 34°09' W 119°13'0 0.0
2017-Jun-06 03:00N 34°09' W 119°13'0 0.0
2017-Jun-06 02:30N 34°09' W 119°13'0 0.0
2017-Jun-06 01:59N 34°09' W 119°13'0 0.0
2017-Jun-06 01:28N 34°09' W 119°13'1 2.7
2017-Jun-06 01:00N 34°08' W 119°13'4 8.1
2017-Jun-06 00:30N 34°04' W 119°11'4 7.9
2017-Jun-06 00:00N 34°01' W 119°09'4 8.0
2017-Jun-05 23:31N 33°58' W 119°06'4 8.2
2017-Jun-05 23:01N 33°54' W 119°03'4 8.1
2017-Jun-05 22:31N 33°51' W 119°00'4 8.0
2017-Jun-05 22:01N 33°48' W 118°58'1 2.1
2017-Jun-05 21:30N 33°47' W 118°58'0 0.1
2017-Jun-05 21:00N 33°47' W 118°58'0 0.2
2017-Jun-05 20:31N 33°46' W 118°58'0 0.1
2017-Jun-05 20:00N 33°47' W 118°58'0 0.1
2017-Jun-05 19:31N 33°47' W 118°58'0 0.1
2017-Jun-05 19:00N 33°46' W 118°58'0 0.1
2017-Jun-05 18:30N 33°47' W 118°58'0 0.1
2017-Jun-05 18:01N 33°46' W 118°58'0 0.2
2017-Jun-05 17:31N 33°46' W 118°58'0 0.2
2017-Jun-05 17:01N 33°46' W 118°58'0 0.3
2017-Jun-05 16:31N 33°46' W 118°58'0 0.2
2017-Jun-05 16:01N 33°47' W 118°58'0 0.6
2017-Jun-05 15:31N 33°47' W 118°58'0 0.3
2017-Jun-05 15:01N 33°47' W 118°58'2 1.7
2017-Jun-05 13:59N 33°48' W 118°60'1 1.1
2017-Jun-05 13:30N 33°48' W 119°00'0 0.5
2017-Jun-05 13:01N 33°48' W 118°60'1 1.5
2017-Jun-05 12:31N 33°48' W 118°59'1 1.5
2017-Jun-05 12:01N 33°48' W 118°58'1 1.8
2017-Jun-05 11:31N 33°48' W 118°57'1 1.8
2017-Jun-05 11:01N 33°48' W 118°56'1 1.7
2017-Jun-05 10:31N 33°48' W 118°55'1 1.7
2017-Jun-05 10:00N 33°48' W 118°54'0 0.8
2017-Jun-05 09:31N 33°48' W 118°54'1 1.4
2017-Jun-05 09:01N 33°48' W 118°55'1 1.3
2017-Jun-05 08:31N 33°47' W 118°56'1 1.6
2017-Jun-05 08:01N 33°47' W 118°57'1 1.6
2017-Jun-05 07:31N 33°48' W 118°58'1 1.5
2017-Jun-05 07:01N 33°48' W 118°59'1 1.5
2017-Jun-05 06:31N 33°48' W 118°59'1 1.5
2017-Jun-05 06:00N 33°48' W 119°00'1 1.1
2017-Jun-05 05:31N 33°49' W 119°01'0 0.9
2017-Jun-05 05:00N 33°48' W 119°01'1 1.0
2017-Jun-05 04:31N 33°48' W 119°02'0 1.0
2017-Jun-05 04:01N 33°48' W 119°03'0 1.0
2017-Jun-05 03:30N 33°48' W 119°03'0 0.1
2017-Jun-05 03:00N 33°48' W 119°03'1 2.1
2017-Jun-05 02:30N 33°48' W 119°02'1 2.1
2017-Jun-05 02:00N 33°49' W 119°01'1 1.8
2017-Jun-05 01:31N 33°49' W 118°60'2 3.4
2017-Jun-05 01:00N 33°50' W 119°01'3 7.0
2017-Jun-05 00:31N 33°54' W 119°03'4 7.1
2017-Jun-05 00:00N 33°57' W 119°05'2 4.5
2017-Jun-04 23:31N 33°55' W 119°03'4 8.2
2017-Jun-04 23:01N 33°52' W 119°00'4 8.1
2017-Jun-04 22:30N 33°48' W 118°58'2 3.4
2017-Jun-04 22:00N 33°46' W 118°57'1 1.5
2017-Jun-04 21:31N 33°46' W 118°58'1 1.5
2017-Jun-04 21:01N 33°46' W 118°59'0 0.1
2017-Jun-04 20:30N 33°46' W 118°59'1 1.3
2017-Jun-04 20:00N 33°46' W 118°58'1 1.4
2017-Jun-04 19:31N 33°46' W 118°57'1 1.5
2017-Jun-04 19:00N 33°47' W 118°57'0 0.4
2017-Jun-04 18:31N 33°47' W 118°56'1 1.3
2017-Jun-04 18:01N 33°47' W 118°57'1 1.1
2017-Jun-04 17:31N 33°46' W 118°58'0 0.0
2017-Jun-04 17:00N 33°46' W 118°58'0 0.1
2017-Jun-04 16:28N 33°46' W 118°58'0 0.0
2017-Jun-04 16:00N 33°46' W 118°58'0 0.0
2017-Jun-04 15:31N 33°46' W 118°58'0 0.6
2017-Jun-04 14:59N 33°47' W 118°58'0 0.6
2017-Jun-04 14:31N 33°47' W 118°58'1 0.7
2017-Jun-04 13:31N 33°46' W 118°57'1 1.6
2017-Jun-04 13:01N 33°47' W 118°58'1 1.5
2017-Jun-04 12:30N 33°47' W 118°57'1 1.6
2017-Jun-04 12:01N 33°47' W 118°58'1 1.5
2017-Jun-04 11:30N 33°47' W 118°59'1 1.4
2017-Jun-04 11:01N 33°47' W 118°60'1 1.3
2017-Jun-04 10:29N 33°47' W 119°01'1 1.3
2017-Jun-04 10:01N 33°47' W 119°01'1 1.3
2017-Jun-04 09:31N 33°47' W 119°02'1 1.2
2017-Jun-04 09:01N 33°47' W 119°03'1 1.0
2017-Jun-04 08:30N 33°47' W 119°03'0 0.8
2017-Jun-04 08:00N 33°47' W 119°04'1 1.1
2017-Jun-04 07:31N 33°47' W 119°03'1 1.3
2017-Jun-04 07:01N 33°47' W 119°02'1 1.4
2017-Jun-04 06:30N 33°47' W 119°02'1 1.4
2017-Jun-04 06:01N 33°47' W 119°01'1 1.3
2017-Jun-04 05:27N 33°47' W 118°60'1 1.4
2017-Jun-04 05:01N 33°47' W 118°59'1 1.2
2017-Jun-04 04:31N 33°47' W 118°58'1 1.2
2017-Jun-04 04:00N 33°47' W 118°58'1 1.2
2017-Jun-04 03:30N 33°47' W 118°57'0 0.9
2017-Jun-04 03:01N 33°47' W 118°56'0 0.5
2017-Jun-04 02:31N 33°47' W 118°57'0 0.7
2017-Jun-04 02:01N 33°47' W 118°57'0 0.5
2017-Jun-04 01:30N 33°47' W 118°57'0 0.5
2017-Jun-04 01:00N 33°47' W 118°58'0 0.3
2017-Jun-04 00:31N 33°46' W 118°58'0 0.0
2017-Jun-04 00:00N 33°46' W 118°58'0 0.0
2017-Jun-03 23:31N 33°46' W 118°58'0 0.0
2017-Jun-03 23:01N 33°47' W 118°58'0 0.2
2017-Jun-03 22:31N 33°47' W 118°58'3 6.4
2017-Jun-03 22:01N 33°49' W 118°60'4 8.3
2017-Jun-03 21:30N 33°53' W 119°02'4 8.7
2017-Jun-03 21:01N 33°57' W 119°05'5 9.0
2017-Jun-03 20:28N 34°01' W 119°08'5 8.9
2017-Jun-03 19:53N 34°05' W 119°11'3 8.7
2017-Jun-03 19:30N 34°08' W 119°13'1 2.1
2017-Jun-03 19:00N 34°09' W 119°13'0 0.0
2017-Jun-03 18:27N 34°09' W 119°13'0 0.0
2017-Jun-03 17:59N 34°09' W 119°13'0 0.0
2017-Jun-03 17:30N 34°09' W 119°13'0 0.0
2017-Jun-03 16:59N 34°09' W 119°13'0 0.0
2017-Jun-03 16:30N 34°09' W 119°13'0 0.0
2017-Jun-03 15:58N 34°09' W 119°13'0 0.0
2017-Jun-03 15:29N 34°09' W 119°13'0 0.0
2017-Jun-03 14:50N 34°09' W 119°13'0 0.0
2017-Jun-03 13:56N 34°09' W 119°13'0 0.0
2017-Jun-03 12:59N 34°09' W 119°13'0 0.0
2017-Jun-03 10:20N 34°09' W 119°13'0 0.0
2017-Jun-03 09:56N 34°09' W 119°13'0 0.0
2017-Jun-03 08:59N 34°09' W 119°13'0 0.0
2017-Jun-03 08:26N 34°09' W 119°13'0 0.0
2017-Jun-03 07:32N 34°09' W 119°13'0 0.0
2017-Jun-03 07:26N 34°09' W 119°13'0 0.0
2017-Jun-03 06:56N 34°09' W 119°13'0 0.0
2017-Jun-03 03:32N 34°09' W 119°13'0 0.0
2017-Jun-03 03:26N 34°09' W 119°13'0 0.0
2017-Jun-03 02:50N 34°09' W 119°13'0 0.0
2017-Jun-03 02:14N 34°09' W 119°13'0 0.0
2017-Jun-03 01:56N 34°09' W 119°13'0 0.0
2017-Jun-03 01:08N 34°09' W 119°13'0 0.0
2017-Jun-03 00:56N 34°09' W 119°13'0 0.0
2017-Jun-03 00:20N 34°09' W 119°13'0 0.0
2017-Jun-02 23:56N 34°09' W 119°13'0 0.0
2017-Jun-02 23:20N 34°09' W 119°13'0 0.0
2017-Jun-02 22:53N 34°09' W 119°13'0 0.0
2017-Jun-02 22:26N 34°09' W 119°13'0 0.0
2017-Jun-02 21:56N 34°09' W 119°13'0 0.0
2017-Jun-02 18:56N 34°09' W 119°13'0 0.0
2017-Jun-02 18:25N 34°09' W 119°13'0 0.0
2017-Jun-02 17:56N 34°09' W 119°13'0 0.0
2017-Jun-02 17:30N 34°09' W 119°13'0 0.0
2017-Jun-02 16:52N 34°09' W 119°13'0 0.0
2017-Jun-02 16:30N 34°09' W 119°13'0 0.0
2017-Jun-02 16:00N 34°09' W 119°13'0 0.0
2017-Jun-02 15:27N 34°09' W 119°13'0 0.0
2017-Jun-02 15:00N 34°09' W 119°13'0 0.0
2017-Jun-02 14:25N 34°09' W 119°13'0 0.2
2017-Jun-02 13:30N 34°09' W 119°13'2 3.9
2017-Jun-02 13:00N 34°07' W 119°12'3 5.4
2017-Jun-02 12:24N 34°05' W 119°09'2 4.6
2017-Jun-02 12:00N 34°04' W 119°08'2 4.5
2017-Jun-02 11:30N 34°03' W 119°05'3 5.3
2017-Jun-02 11:00N 34°01' W 119°03'3 6.2
2017-Jun-02 10:30N 33°59' W 118°59'4 7.9
2017-Jun-02 10:00N 33°57' W 118°56'4 8.4
2017-Jun-02 09:30N 33°55' W 118°52'4 8.2
2017-Jun-02 09:00N 33°52' W 118°48'4 8.6
2017-Jun-02 08:30N 33°48' W 118°48'4 8.7
2017-Jun-02 08:00N 33°44' W 118°44'4 8.6
2017-Jun-02 07:30N 33°41' W 118°40'4 8.8
2017-Jun-02 07:00N 33°38' W 118°36'4 8.7
2017-Jun-02 06:30N 33°36' W 118°32'4 8.5
2017-Jun-02 06:00N 33°33' W 118°28'5 8.6
2017-Jun-02 05:27N 33°30' W 118°24'4 8.7
2017-Jun-02 05:00N 33°28' W 118°20'4 8.6
2017-Jun-02 04:30N 33°25' W 118°17'4 8.6
2017-Jun-02 04:00N 33°22' W 118°13'4 8.4
2017-Jun-02 03:30N 33°18' W 118°10'4 8.0
2017-Jun-02 03:00N 33°16' W 118°06'4 8.1
2017-Jun-02 02:30N 33°12' W 118°03'4 8.0
2017-Jun-02 02:00N 33°10' W 117°60'4 7.7
2017-Jun-02 01:30N 33°07' W 117°57'4 7.6
2017-Jun-02 01:00N 33°04' W 117°53'4 7.7
2017-Jun-02 00:30N 33°01' W 117°50'4 7.8
2017-Jun-02 00:00N 32°59' W 117°47'4 7.9
2017-Jun-01 23:30N 32°56' W 117°44'4 7.5
2017-Jun-01 23:00N 32°53' W 117°41'3 6.2
2017-Jun-01 22:30N 32°51' W 117°38'0 0.3
2017-Jun-01 22:00N 32°51' W 117°38'0 0.0
2017-Jun-01 21:30N 32°51' W 117°38'0 0.3
2017-Jun-01 21:00N 32°51' W 117°38'1 2.3
2017-Jun-01 20:30N 32°51' W 117°37'4 8.3
2017-Jun-01 20:00N 32°49' W 117°32'4 7.9
2017-Jun-01 19:30N 32°47' W 117°28'4 7.7
2017-Jun-01 19:00N 32°45' W 117°24'4 7.8
2017-Jun-01 18:30N 32°42' W 117°21'4 7.8
2017-Jun-01 18:00N 32°40' W 117°18'3 6.0
2017-Jun-01 17:30N 32°39' W 117°14'4 7.4
2017-Jun-01 17:00N 32°43' W 117°13'3 6.4
2017-Jun-01 16:28N 32°42' W 117°09'  

Dump ship's entire track history